sensor_id;sensor_type;location;lat;lon;timestamp;P1;durP1;ratioP1;P2;durP2;ratioP2
53052;SDS011;38934;52.690;6.184;2023-11-25T00:00:26;11.40;;;2.67;;
53052;SDS011;38934;52.690;6.184;2023-11-25T00:02:52;12.32;;;3.17;;
53052;SDS011;38934;52.690;6.184;2023-11-25T00:05:18;11.00;;;3.05;;
53052;SDS011;38934;52.690;6.184;2023-11-25T00:07:45;16.50;;;3.15;;
53052;SDS011;38934;52.690;6.184;2023-11-25T00:10:10;13.60;;;2.70;;
53052;SDS011;38934;52.690;6.184;2023-11-25T00:12:37;15.98;;;3.15;;
53052;SDS011;38934;52.690;6.184;2023-11-25T00:15:03;10.57;;;3.40;;
53052;SDS011;38934;52.690;6.184;2023-11-25T00:17:29;10.95;;;3.15;;
53052;SDS011;38934;52.690;6.184;2023-11-25T00:19:58;15.18;;;3.33;;
53052;SDS011;38934;52.690;6.184;2023-11-25T00:22:24;11.02;;;2.97;;
53052;SDS011;38934;52.690;6.184;2023-11-25T00:24:50;15.85;;;4.28;;
53052;SDS011;38934;52.690;6.184;2023-11-25T00:27:16;19.55;;;3.45;;
53052;SDS011;38934;52.690;6.184;2023-11-25T00:29:43;16.25;;;3.67;;
53052;SDS011;38934;52.690;6.184;2023-11-25T00:32:09;14.20;;;2.90;;
53052;SDS011;38934;52.690;6.184;2023-11-25T00:34:35;12.57;;;2.78;;
53052;SDS011;38934;52.690;6.184;2023-11-25T00:37:01;13.13;;;2.70;;
53052;SDS011;38934;52.690;6.184;2023-11-25T00:39:28;11.57;;;3.13;;
53052;SDS011;38934;52.690;6.184;2023-11-25T00:41:54;11.48;;;2.75;;
53052;SDS011;38934;52.690;6.184;2023-11-25T00:44:20;18.15;;;3.33;;
53052;SDS011;38934;52.690;6.184;2023-11-25T00:46:46;19.52;;;3.60;;
53052;SDS011;38934;52.690;6.184;2023-11-25T00:49:12;15.07;;;3.30;;
53052;SDS011;38934;52.690;6.184;2023-11-25T00:51:40;14.13;;;2.75;;
53052;SDS011;38934;52.690;6.184;2023-11-25T00:54:08;15.43;;;3.25;;
53052;SDS011;38934;52.690;6.184;2023-11-25T00:56:34;13.73;;;2.95;;
53052;SDS011;38934;52.690;6.184;2023-11-25T00:59:00;13.18;;;3.63;;
53052;SDS011;38934;52.690;6.184;2023-11-25T01:01:26;14.38;;;3.47;;
53052;SDS011;38934;52.690;6.184;2023-11-25T01:03:51;15.68;;;3.15;;
53052;SDS011;38934;52.690;6.184;2023-11-25T01:06:17;14.75;;;3.30;;
53052;SDS011;38934;52.690;6.184;2023-11-25T01:08:43;11.95;;;3.20;;
53052;SDS011;38934;52.690;6.184;2023-11-25T01:11:09;13.27;;;2.85;;
53052;SDS011;38934;52.690;6.184;2023-11-25T01:13:34;14.38;;;2.45;;
53052;SDS011;38934;52.690;6.184;2023-11-25T01:16:00;14.95;;;2.72;;
53052;SDS011;38934;52.690;6.184;2023-11-25T01:18:26;10.15;;;2.80;;
53052;SDS011;38934;52.690;6.184;2023-11-25T01:20:52;12.77;;;2.75;;
53052;SDS011;38934;52.690;6.184;2023-11-25T01:23:20;14.73;;;2.83;;
53052;SDS011;38934;52.690;6.184;2023-11-25T01:25:47;10.27;;;2.50;;
53052;SDS011;38934;52.690;6.184;2023-11-25T01:28:13;7.20;;;2.03;;
53052;SDS011;38934;52.690;6.184;2023-11-25T01:30:39;14.38;;;2.97;;
53052;SDS011;38934;52.690;6.184;2023-11-25T01:33:05;17.42;;;3.83;;
53052;SDS011;38934;52.690;6.184;2023-11-25T01:35:34;16.70;;;4.00;;
53052;SDS011;38934;52.690;6.184;2023-11-25T01:38:00;8.82;;;2.58;;
53052;SDS011;38934;52.690;6.184;2023-11-25T01:40:26;12.25;;;2.80;;
53052;SDS011;38934;52.690;6.184;2023-11-25T01:42:58;15.27;;;2.80;;
53052;SDS011;38934;52.690;6.184;2023-11-25T01:45:24;17.70;;;3.17;;
53052;SDS011;38934;52.690;6.184;2023-11-25T01:47:53;14.10;;;2.63;;
53052;SDS011;38934;52.690;6.184;2023-11-25T01:50:21;7.75;;;2.35;;
53052;SDS011;38934;52.690;6.184;2023-11-25T01:52:48;8.18;;;2.38;;
53052;SDS011;38934;52.690;6.184;2023-11-25T01:55:15;12.73;;;2.92;;
53052;SDS011;38934;52.690;6.184;2023-11-25T01:57:42;14.50;;;2.85;;
53052;SDS011;38934;52.690;6.184;2023-11-25T02:00:08;12.65;;;2.22;;
53052;SDS011;38934;52.690;6.184;2023-11-25T02:02:38;9.23;;;2.10;;
53052;SDS011;38934;52.690;6.184;2023-11-25T02:05:07;9.10;;;2.13;;
53052;SDS011;38934;52.690;6.184;2023-11-25T02:07:33;19.20;;;3.47;;
53052;SDS011;38934;52.690;6.184;2023-11-25T02:10:00;13.73;;;2.70;;
53052;SDS011;38934;52.690;6.184;2023-11-25T02:12:25;11.60;;;2.65;;
53052;SDS011;38934;52.690;6.184;2023-11-25T02:14:51;14.23;;;2.70;;
53052;SDS011;38934;52.690;6.184;2023-11-25T02:17:16;14.10;;;2.65;;
53052;SDS011;38934;52.690;6.184;2023-11-25T02:19:42;8.27;;;2.58;;
53052;SDS011;38934;52.690;6.184;2023-11-25T02:22:08;12.23;;;3.17;;
53052;SDS011;38934;52.690;6.184;2023-11-25T02:24:35;7.00;;;1.92;;
53052;SDS011;38934;52.690;6.184;2023-11-25T02:27:02;5.90;;;1.70;;
53052;SDS011;38934;52.690;6.184;2023-11-25T02:29:29;12.73;;;2.95;;
53052;SDS011;38934;52.690;6.184;2023-11-25T02:32:00;9.82;;;2.75;;
53052;SDS011;38934;52.690;6.184;2023-11-25T02:34:29;7.82;;;2.33;;
53052;SDS011;38934;52.690;6.184;2023-11-25T02:36:55;7.85;;;2.33;;
53052;SDS011;38934;52.690;6.184;2023-11-25T02:39:22;10.85;;;2.42;;
53052;SDS011;38934;52.690;6.184;2023-11-25T02:41:49;12.07;;;2.38;;
53052;SDS011;38934;52.690;6.184;2023-11-25T02:44:16;12.13;;;2.65;;
53052;SDS011;38934;52.690;6.184;2023-11-25T02:46:43;15.70;;;2.67;;
53052;SDS011;38934;52.690;6.184;2023-11-25T02:49:09;12.30;;;4.13;;
53052;SDS011;38934;52.690;6.184;2023-11-25T02:51:35;16.48;;;2.47;;
53052;SDS011;38934;52.690;6.184;2023-11-25T02:54:01;10.40;;;2.20;;
53052;SDS011;38934;52.690;6.184;2023-11-25T02:56:27;13.10;;;2.30;;
53052;SDS011;38934;52.690;6.184;2023-11-25T02:58:52;12.57;;;2.47;;
53052;SDS011;38934;52.690;6.184;2023-11-25T03:01:18;14.10;;;2.67;;
53052;SDS011;38934;52.690;6.184;2023-11-25T03:03:44;16.08;;;3.08;;
53052;SDS011;38934;52.690;6.184;2023-11-25T03:06:13;10.40;;;2.35;;
53052;SDS011;38934;52.690;6.184;2023-11-25T03:08:41;13.35;;;2.30;;
53052;SDS011;38934;52.690;6.184;2023-11-25T03:11:07;13.95;;;2.65;;
53052;SDS011;38934;52.690;6.184;2023-11-25T03:13:40;15.70;;;2.97;;
53052;SDS011;38934;52.690;6.184;2023-11-25T03:16:07;13.55;;;3.03;;
53052;SDS011;38934;52.690;6.184;2023-11-25T03:18:33;15.38;;;2.85;;
53052;SDS011;38934;52.690;6.184;2023-11-25T03:20:58;16.88;;;3.15;;
53052;SDS011;38934;52.690;6.184;2023-11-25T03:23:24;17.30;;;2.65;;
53052;SDS011;38934;52.690;6.184;2023-11-25T03:25:49;13.00;;;2.72;;
53052;SDS011;38934;52.690;6.184;2023-11-25T03:28:15;17.17;;;3.78;;
53052;SDS011;38934;52.690;6.184;2023-11-25T03:30:40;13.70;;;2.90;;
53052;SDS011;38934;52.690;6.184;2023-11-25T03:33:06;14.10;;;3.08;;
53052;SDS011;38934;52.690;6.184;2023-11-25T03:35:32;14.55;;;2.75;;
53052;SDS011;38934;52.690;6.184;2023-11-25T03:37:58;11.52;;;2.47;;
53052;SDS011;38934;52.690;6.184;2023-11-25T03:40:24;8.32;;;2.58;;
53052;SDS011;38934;52.690;6.184;2023-11-25T03:42:49;7.78;;;2.08;;
53052;SDS011;38934;52.690;6.184;2023-11-25T03:45:15;8.63;;;2.25;;
53052;SDS011;38934;52.690;6.184;2023-11-25T03:47:43;7.78;;;1.90;;
53052;SDS011;38934;52.690;6.184;2023-11-25T03:50:10;10.38;;;2.58;;
53052;SDS011;38934;52.690;6.184;2023-11-25T03:52:40;8.93;;;2.10;;
53052;SDS011;38934;52.690;6.184;2023-11-25T03:55:07;7.97;;;1.95;;
53052;SDS011;38934;52.690;6.184;2023-11-25T03:57:34;5.55;;;1.83;;
53052;SDS011;38934;52.690;6.184;2023-11-25T04:00:01;2.65;;;1.13;;
53052;SDS011;38934;52.690;6.184;2023-11-25T04:02:28;10.35;;;1.48;;
53052;SDS011;38934;52.690;6.184;2023-11-25T04:04:53;3.63;;;1.30;;
53052;SDS011;38934;52.690;6.184;2023-11-25T04:07:19;5.05;;;1.50;;
53052;SDS011;38934;52.690;6.184;2023-11-25T04:09:45;4.93;;;1.35;;
53052;SDS011;38934;52.690;6.184;2023-11-25T04:12:10;5.25;;;1.80;;
53052;SDS011;38934;52.690;6.184;2023-11-25T04:14:36;4.35;;;1.23;;
53052;SDS011;38934;52.690;6.184;2023-11-25T04:17:01;3.88;;;1.38;;
53052;SDS011;38934;52.690;6.184;2023-11-25T04:19:28;8.77;;;1.30;;
53052;SDS011;38934;52.690;6.184;2023-11-25T04:21:55;3.88;;;1.10;;
53052;SDS011;38934;52.690;6.184;2023-11-25T04:24:24;5.68;;;1.30;;
53052;SDS011;38934;52.690;6.184;2023-11-25T04:26:52;5.60;;;1.48;;
53052;SDS011;38934;52.690;6.184;2023-11-25T04:29:18;2.97;;;1.10;;
53052;SDS011;38934;52.690;6.184;2023-11-25T04:31:45;1.83;;;1.20;;
53052;SDS011;38934;52.690;6.184;2023-11-25T04:34:12;5.95;;;1.10;;
53052;SDS011;38934;52.690;6.184;2023-11-25T04:36:38;5.43;;;1.30;;
53052;SDS011;38934;52.690;6.184;2023-11-25T04:39:04;5.55;;;1.35;;
53052;SDS011;38934;52.690;6.184;2023-11-25T04:41:30;5.50;;;1.40;;
53052;SDS011;38934;52.690;6.184;2023-11-25T04:43:56;4.90;;;1.30;;
53052;SDS011;38934;52.690;6.184;2023-11-25T04:46:21;6.22;;;1.73;;
53052;SDS011;38934;52.690;6.184;2023-11-25T04:48:47;9.65;;;2.67;;
53052;SDS011;38934;52.690;6.184;2023-11-25T04:51:12;6.57;;;1.70;;
53052;SDS011;38934;52.690;6.184;2023-11-25T04:53:46;3.65;;;1.33;;
53052;SDS011;38934;52.690;6.184;2023-11-25T04:56:12;10.65;;;2.05;;
53052;SDS011;38934;52.690;6.184;2023-11-25T04:58:38;3.70;;;1.40;;
53052;SDS011;38934;52.690;6.184;2023-11-25T05:01:05;4.35;;;1.45;;
53052;SDS011;38934;52.690;6.184;2023-11-25T05:03:31;3.80;;;1.30;;
53052;SDS011;38934;52.690;6.184;2023-11-25T05:05:58;4.72;;;1.25;;
53052;SDS011;38934;52.690;6.184;2023-11-25T05:08:27;8.55;;;1.63;;
53052;SDS011;38934;52.690;6.184;2023-11-25T05:10:53;5.93;;;1.63;;
53052;SDS011;38934;52.690;6.184;2023-11-25T05:13:18;2.88;;;1.10;;
53052;SDS011;38934;52.690;6.184;2023-11-25T05:15:44;4.25;;;1.27;;
53052;SDS011;38934;52.690;6.184;2023-11-25T05:18:10;4.93;;;1.40;;
53052;SDS011;38934;52.690;6.184;2023-11-25T05:20:36;2.17;;;1.10;;
53052;SDS011;38934;52.690;6.184;2023-11-25T05:23:02;2.50;;;1.20;;
53052;SDS011;38934;52.690;6.184;2023-11-25T05:25:27;4.10;;;1.33;;
53052;SDS011;38934;52.690;6.184;2023-11-25T05:27:53;3.85;;;1.23;;
53052;SDS011;38934;52.690;6.184;2023-11-25T05:30:19;3.28;;;1.70;;
53052;SDS011;38934;52.690;6.184;2023-11-25T05:32:45;6.20;;;1.30;;
53052;SDS011;38934;52.690;6.184;2023-11-25T05:35:11;7.45;;;2.20;;
53052;SDS011;38934;52.690;6.184;2023-11-25T05:37:38;12.00;;;3.25;;
53052;SDS011;38934;52.690;6.184;2023-11-25T05:40:05;13.38;;;2.55;;
53052;SDS011;38934;52.690;6.184;2023-11-25T05:42:34;10.60;;;2.10;;
53052;SDS011;38934;52.690;6.184;2023-11-25T05:45:03;12.77;;;3.17;;
53052;SDS011;38934;52.690;6.184;2023-11-25T05:47:34;11.45;;;2.10;;
53052;SDS011;38934;52.690;6.184;2023-11-25T05:49:59;10.95;;;2.20;;
53052;SDS011;38934;52.690;6.184;2023-11-25T05:52:25;10.98;;;2.20;;
53052;SDS011;38934;52.690;6.184;2023-11-25T05:54:51;9.38;;;2.15;;
53052;SDS011;38934;52.690;6.184;2023-11-25T05:57:17;9.48;;;2.10;;
53052;SDS011;38934;52.690;6.184;2023-11-25T05:59:43;14.07;;;3.28;;
53052;SDS011;38934;52.690;6.184;2023-11-25T06:02:08;13.45;;;2.90;;
53052;SDS011;38934;52.690;6.184;2023-11-25T06:04:34;13.20;;;2.47;;
53052;SDS011;38934;52.690;6.184;2023-11-25T06:07:00;12.15;;;2.72;;
53052;SDS011;38934;52.690;6.184;2023-11-25T06:09:25;11.77;;;2.70;;
53052;SDS011;38934;52.690;6.184;2023-11-25T06:11:51;12.52;;;2.60;;
53052;SDS011;38934;52.690;6.184;2023-11-25T06:14:17;9.80;;;2.28;;
53052;SDS011;38934;52.690;6.184;2023-11-25T06:16:44;9.82;;;2.17;;
53052;SDS011;38934;52.690;6.184;2023-11-25T06:19:11;6.68;;;1.95;;
53052;SDS011;38934;52.690;6.184;2023-11-25T06:21:38;11.65;;;2.38;;
53052;SDS011;38934;52.690;6.184;2023-11-25T06:24:05;9.50;;;2.17;;
53052;SDS011;38934;52.690;6.184;2023-11-25T06:26:31;5.15;;;2.15;;
53052;SDS011;38934;52.690;6.184;2023-11-25T06:28:57;4.40;;;1.98;;
53052;SDS011;38934;52.690;6.184;2023-11-25T06:31:22;7.00;;;1.63;;
53052;SDS011;38934;52.690;6.184;2023-11-25T06:33:48;5.97;;;1.48;;
53052;SDS011;38934;52.690;6.184;2023-11-25T06:36:14;9.00;;;1.80;;
53052;SDS011;38934;52.690;6.184;2023-11-25T06:38:40;5.13;;;1.75;;
53052;SDS011;38934;52.690;6.184;2023-11-25T06:41:06;6.53;;;1.70;;
53052;SDS011;38934;52.690;6.184;2023-11-25T06:43:32;6.85;;;2.22;;
53052;SDS011;38934;52.690;6.184;2023-11-25T06:45:58;10.20;;;2.30;;
53052;SDS011;38934;52.690;6.184;2023-11-25T06:48:24;7.40;;;2.30;;
53052;SDS011;38934;52.690;6.184;2023-11-25T06:50:53;4.72;;;1.80;;
53052;SDS011;38934;52.690;6.184;2023-11-25T06:53:19;7.03;;;1.83;;
53052;SDS011;38934;52.690;6.184;2023-11-25T06:55:44;5.07;;;1.50;;
53052;SDS011;38934;52.690;6.184;2023-11-25T06:58:10;7.50;;;1.73;;
53052;SDS011;38934;52.690;6.184;2023-11-25T07:00:37;5.22;;;1.63;;
53052;SDS011;38934;52.690;6.184;2023-11-25T07:03:03;8.32;;;1.48;;
53052;SDS011;38934;52.690;6.184;2023-11-25T07:05:29;6.53;;;1.83;;
53052;SDS011;38934;52.690;6.184;2023-11-25T07:07:55;5.32;;;1.50;;
53052;SDS011;38934;52.690;6.184;2023-11-25T07:10:21;7.95;;;1.75;;
53052;SDS011;38934;52.690;6.184;2023-11-25T07:12:47;6.05;;;1.70;;
53052;SDS011;38934;52.690;6.184;2023-11-25T07:15:12;5.60;;;1.77;;
53052;SDS011;38934;52.690;6.184;2023-11-25T07:17:39;7.38;;;1.73;;
53052;SDS011;38934;52.690;6.184;2023-11-25T07:20:08;6.60;;;1.80;;
53052;SDS011;38934;52.690;6.184;2023-11-25T07:22:39;6.35;;;2.40;;
53052;SDS011;38934;52.690;6.184;2023-11-25T07:25:05;11.88;;;2.63;;
53052;SDS011;38934;52.690;6.184;2023-11-25T07:27:36;10.20;;;3.13;;
53052;SDS011;38934;52.690;6.184;2023-11-25T07:30:06;12.68;;;2.65;;
53052;SDS011;38934;52.690;6.184;2023-11-25T07:32:33;13.18;;;3.55;;
53052;SDS011;38934;52.690;6.184;2023-11-25T07:34:59;8.45;;;3.05;;
53052;SDS011;38934;52.690;6.184;2023-11-25T07:37:25;8.02;;;2.75;;
53052;SDS011;38934;52.690;6.184;2023-11-25T07:39:52;8.23;;;2.20;;
53052;SDS011;38934;52.690;6.184;2023-11-25T07:42:18;5.75;;;2.13;;
53052;SDS011;38934;52.690;6.184;2023-11-25T07:44:44;11.27;;;3.13;;
53052;SDS011;38934;52.690;6.184;2023-11-25T07:47:09;13.50;;;2.92;;
53052;SDS011;38934;52.690;6.184;2023-11-25T07:49:36;11.77;;;3.70;;
53052;SDS011;38934;52.690;6.184;2023-11-25T07:52:01;15.75;;;4.00;;
53052;SDS011;38934;52.690;6.184;2023-11-25T07:54:28;14.80;;;4.53;;
53052;SDS011;38934;52.690;6.184;2023-11-25T07:56:53;12.00;;;3.67;;
53052;SDS011;38934;52.690;6.184;2023-11-25T07:59:19;18.25;;;5.15;;
53052;SDS011;38934;52.690;6.184;2023-11-25T08:01:45;14.52;;;4.45;;
53052;SDS011;38934;52.690;6.184;2023-11-25T08:04:11;16.50;;;5.05;;
53052;SDS011;38934;52.690;6.184;2023-11-25T08:06:37;14.30;;;4.45;;
53052;SDS011;38934;52.690;6.184;2023-11-25T08:09:03;13.90;;;4.07;;
53052;SDS011;38934;52.690;6.184;2023-11-25T08:11:29;15.25;;;3.78;;
53052;SDS011;38934;52.690;6.184;2023-11-25T08:13:57;6.55;;;1.92;;
53052;SDS011;38934;52.690;6.184;2023-11-25T08:16:22;13.40;;;2.53;;
53052;SDS011;38934;52.690;6.184;2023-11-25T08:18:48;9.52;;;2.10;;
53052;SDS011;38934;52.690;6.184;2023-11-25T08:21:14;6.85;;;2.20;;
53052;SDS011;38934;52.690;6.184;2023-11-25T08:23:40;9.65;;;2.00;;
53052;SDS011;38934;52.690;6.184;2023-11-25T08:26:16;14.23;;;2.25;;
53052;SDS011;38934;52.690;6.184;2023-11-25T08:28:46;9.57;;;2.53;;
53052;SDS011;38934;52.690;6.184;2023-11-25T08:31:12;9.13;;;2.47;;
53052;SDS011;38934;52.690;6.184;2023-11-25T08:33:41;15.10;;;2.58;;
53052;SDS011;38934;52.690;6.184;2023-11-25T08:36:07;16.00;;;3.58;;
53052;SDS011;38934;52.690;6.184;2023-11-25T08:38:35;9.50;;;2.35;;
53052;SDS011;38934;52.690;6.184;2023-11-25T08:41:00;13.15;;;2.95;;
53052;SDS011;38934;52.690;6.184;2023-11-25T08:43:27;9.07;;;2.35;;
53052;SDS011;38934;52.690;6.184;2023-11-25T08:45:54;17.48;;;2.97;;
53052;SDS011;38934;52.690;6.184;2023-11-25T08:48:20;14.73;;;3.17;;
53052;SDS011;38934;52.690;6.184;2023-11-25T08:50:46;11.98;;;2.50;;
53052;SDS011;38934;52.690;6.184;2023-11-25T08:53:11;12.13;;;2.28;;
53052;SDS011;38934;52.690;6.184;2023-11-25T08:55:39;10.55;;;2.08;;
53052;SDS011;38934;52.690;6.184;2023-11-25T08:58:04;5.78;;;2.10;;
53052;SDS011;38934;52.690;6.184;2023-11-25T09:00:32;12.43;;;2.10;;
53052;SDS011;38934;52.690;6.184;2023-11-25T09:02:58;13.27;;;2.50;;
53052;SDS011;38934;52.690;6.184;2023-11-25T09:05:24;12.85;;;2.50;;
53052;SDS011;38934;52.690;6.184;2023-11-25T09:07:54;13.38;;;2.42;;
53052;SDS011;38934;52.690;6.184;2023-11-25T09:10:20;11.63;;;2.90;;
53052;SDS011;38934;52.690;6.184;2023-11-25T09:12:47;13.48;;;2.53;;
53052;SDS011;38934;52.690;6.184;2023-11-25T09:15:16;16.35;;;4.05;;
53052;SDS011;38934;52.690;6.184;2023-11-25T09:17:42;14.93;;;2.78;;
53052;SDS011;38934;52.690;6.184;2023-11-25T09:20:08;19.70;;;3.50;;
53052;SDS011;38934;52.690;6.184;2023-11-25T09:22:40;23.30;;;3.95;;
53052;SDS011;38934;52.690;6.184;2023-11-25T09:25:07;16.70;;;2.75;;
53052;SDS011;38934;52.690;6.184;2023-11-25T09:27:37;13.00;;;2.72;;
53052;SDS011;38934;52.690;6.184;2023-11-25T09:30:04;15.25;;;2.83;;
53052;SDS011;38934;52.690;6.184;2023-11-25T09:32:30;14.20;;;2.75;;
53052;SDS011;38934;52.690;6.184;2023-11-25T09:34:57;15.60;;;2.92;;
53052;SDS011;38934;52.690;6.184;2023-11-25T09:37:23;13.52;;;2.50;;
53052;SDS011;38934;52.690;6.184;2023-11-25T09:39:48;13.68;;;3.00;;
53052;SDS011;38934;52.690;6.184;2023-11-25T09:42:14;13.93;;;3.05;;
53052;SDS011;38934;52.690;6.184;2023-11-25T09:44:40;10.93;;;2.50;;
53052;SDS011;38934;52.690;6.184;2023-11-25T09:47:06;10.25;;;2.60;;
53052;SDS011;38934;52.690;6.184;2023-11-25T09:49:32;7.20;;;1.98;;
53052;SDS011;38934;52.690;6.184;2023-11-25T09:52:00;14.98;;;2.13;;
53052;SDS011;38934;52.690;6.184;2023-11-25T09:54:29;8.93;;;2.10;;
53052;SDS011;38934;52.690;6.184;2023-11-25T09:56:55;10.40;;;2.40;;
53052;SDS011;38934;52.690;6.184;2023-11-25T09:59:23;11.88;;;2.30;;
53052;SDS011;38934;52.690;6.184;2023-11-25T10:01:49;11.00;;;2.15;;
53052;SDS011;38934;52.690;6.184;2023-11-25T10:04:15;9.13;;;2.58;;
53052;SDS011;38934;52.690;6.184;2023-11-25T10:06:41;9.18;;;2.10;;
53052;SDS011;38934;52.690;6.184;2023-11-25T10:09:07;7.68;;;1.85;;
53052;SDS011;38934;52.690;6.184;2023-11-25T10:11:37;9.43;;;2.22;;
53052;SDS011;38934;52.690;6.184;2023-11-25T10:14:10;6.35;;;2.85;;
53052;SDS011;38934;52.690;6.184;2023-11-25T10:16:42;9.10;;;3.10;;
53052;SDS011;38934;52.690;6.184;2023-11-25T10:19:19;9.23;;;2.55;;
53052;SDS011;38934;52.690;6.184;2023-11-25T10:21:46;11.50;;;2.45;;
53052;SDS011;38934;52.690;6.184;2023-11-25T10:24:13;11.32;;;2.40;;
53052;SDS011;38934;52.690;6.184;2023-11-25T10:26:39;8.25;;;2.70;;
53052;SDS011;38934;52.690;6.184;2023-11-25T10:29:05;10.57;;;2.70;;
53052;SDS011;38934;52.690;6.184;2023-11-25T10:31:33;11.02;;;2.83;;
53052;SDS011;38934;52.690;6.184;2023-11-25T10:33:58;9.73;;;2.55;;
53052;SDS011;38934;52.690;6.184;2023-11-25T10:36:26;12.73;;;2.25;;
53052;SDS011;38934;52.690;6.184;2023-11-25T10:38:53;9.52;;;2.83;;
53052;SDS011;38934;52.690;6.184;2023-11-25T10:41:19;11.25;;;3.40;;
53052;SDS011;38934;52.690;6.184;2023-11-25T10:43:46;13.13;;;3.72;;
53052;SDS011;38934;52.690;6.184;2023-11-25T10:46:12;16.50;;;3.88;;
53052;SDS011;38934;52.690;6.184;2023-11-25T10:48:39;15.38;;;3.85;;
53052;SDS011;38934;52.690;6.184;2023-11-25T10:51:05;13.05;;;4.22;;
53052;SDS011;38934;52.690;6.184;2023-11-25T10:53:33;11.23;;;2.53;;
53052;SDS011;38934;52.690;6.184;2023-11-25T10:56:01;13.75;;;3.55;;
53052;SDS011;38934;52.690;6.184;2023-11-25T10:58:28;15.18;;;3.47;;
53052;SDS011;38934;52.690;6.184;2023-11-25T11:00:56;20.23;;;3.10;;
53052;SDS011;38934;52.690;6.184;2023-11-25T11:03:32;16.35;;;3.47;;
53052;SDS011;38934;52.690;6.184;2023-11-25T11:06:22;10.70;;;2.67;;
53052;SDS011;38934;52.690;6.184;2023-11-25T11:08:53;14.13;;;2.83;;
53052;SDS011;38934;52.690;6.184;2023-11-25T11:14:11;16.30;;;3.53;;
53052;SDS011;38934;52.690;6.184;2023-11-25T11:19:27;16.80;;;3.47;;
53052;SDS011;38934;52.690;6.184;2023-11-25T11:22:02;15.43;;;3.42;;
53052;SDS011;38934;52.690;6.184;2023-11-25T11:24:48;14.35;;;3.72;;
53052;SDS011;38934;52.690;6.184;2023-11-25T11:30:18;10.18;;;3.15;;
53052;SDS011;38934;52.690;6.184;2023-11-25T11:32:49;12.50;;;2.63;;
53052;SDS011;38934;52.690;6.184;2023-11-25T11:35:17;11.13;;;3.83;;
53052;SDS011;38934;52.690;6.184;2023-11-25T11:37:46;13.98;;;3.33;;
53052;SDS011;38934;52.690;6.184;2023-11-25T11:40:13;11.82;;;4.60;;
53052;SDS011;38934;52.690;6.184;2023-11-25T11:42:39;11.23;;;2.63;;
53052;SDS011;38934;52.690;6.184;2023-11-25T11:50:19;11.80;;;2.42;;
53052;SDS011;38934;52.690;6.184;2023-11-25T11:52:47;6.85;;;2.25;;
53052;SDS011;38934;52.690;6.184;2023-11-25T11:58:27;10.05;;;2.70;;
53052;SDS011;38934;52.690;6.184;2023-11-25T12:03:31;12.48;;;3.17;;
53052;SDS011;38934;52.690;6.184;2023-11-25T12:05:58;11.75;;;3.20;;
53052;SDS011;38934;52.690;6.184;2023-11-25T12:08:24;15.60;;;3.78;;
53052;SDS011;38934;52.690;6.184;2023-11-25T12:10:52;13.95;;;3.03;;
53052;SDS011;38934;52.690;6.184;2023-11-25T12:15:53;11.48;;;2.30;;
53052;SDS011;38934;52.690;6.184;2023-11-25T12:18:24;10.60;;;2.35;;
53052;SDS011;38934;52.690;6.184;2023-11-25T12:20:50;10.98;;;2.08;;
53052;SDS011;38934;52.690;6.184;2023-11-25T12:23:16;16.15;;;2.67;;
53052;SDS011;38934;52.690;6.184;2023-11-25T12:25:41;13.93;;;2.60;;
53052;SDS011;38934;52.690;6.184;2023-11-25T12:28:09;17.35;;;3.00;;
53052;SDS011;38934;52.690;6.184;2023-11-25T12:30:36;14.70;;;2.70;;
53052;SDS011;38934;52.690;6.184;2023-11-25T12:33:06;9.93;;;3.08;;
53052;SDS011;38934;52.690;6.184;2023-11-25T12:35:34;15.88;;;3.05;;
53052;SDS011;38934;52.690;6.184;2023-11-25T12:38:04;15.02;;;2.60;;
53052;SDS011;38934;52.690;6.184;2023-11-25T12:40:30;11.18;;;2.60;;
53052;SDS011;38934;52.690;6.184;2023-11-25T12:42:57;11.30;;;2.72;;
53052;SDS011;38934;52.690;6.184;2023-11-25T12:45:29;14.27;;;3.40;;
53052;SDS011;38934;52.690;6.184;2023-11-25T12:48:00;11.05;;;2.40;;
53052;SDS011;38934;52.690;6.184;2023-11-25T12:50:28;12.48;;;2.90;;
53052;SDS011;38934;52.690;6.184;2023-11-25T12:53:02;12.82;;;2.97;;
53052;SDS011;38934;52.690;6.184;2023-11-25T12:58:05;11.05;;;3.03;;
53052;SDS011;38934;52.690;6.184;2023-11-25T13:00:32;13.07;;;2.67;;
53052;SDS011;38934;52.690;6.184;2023-11-25T13:02:58;9.90;;;2.47;;
53052;SDS011;38934;52.690;6.184;2023-11-25T13:05:24;12.18;;;2.83;;
53052;SDS011;38934;52.690;6.184;2023-11-25T13:07:50;9.32;;;2.40;;
53052;SDS011;38934;52.690;6.184;2023-11-25T13:10:15;16.15;;;3.13;;
53052;SDS011;38934;52.690;6.184;2023-11-25T13:12:41;12.23;;;2.72;;
53052;SDS011;38934;52.690;6.184;2023-11-25T13:15:07;14.23;;;3.20;;
53052;SDS011;38934;52.690;6.184;2023-11-25T13:17:34;17.27;;;3.58;;
53052;SDS011;38934;52.690;6.184;2023-11-25T13:20:01;14.88;;;2.60;;
53052;SDS011;38934;52.690;6.184;2023-11-25T13:22:28;12.98;;;2.97;;
53052;SDS011;38934;52.690;6.184;2023-11-25T13:24:54;15.52;;;2.75;;
53052;SDS011;38934;52.690;6.184;2023-11-25T13:27:19;14.73;;;3.33;;
53052;SDS011;38934;52.690;6.184;2023-11-25T13:29:45;17.98;;;3.13;;
53052;SDS011;38934;52.690;6.184;2023-11-25T13:32:10;15.57;;;3.22;;
53052;SDS011;38934;52.690;6.184;2023-11-25T13:34:38;11.80;;;2.30;;
53052;SDS011;38934;52.690;6.184;2023-11-25T13:37:05;11.32;;;2.60;;
53052;SDS011;38934;52.690;6.184;2023-11-25T13:39:32;11.38;;;2.58;;
53052;SDS011;38934;52.690;6.184;2023-11-25T13:41:58;11.43;;;2.40;;
53052;SDS011;38934;52.690;6.184;2023-11-25T13:44:24;12.90;;;3.05;;
53052;SDS011;38934;52.690;6.184;2023-11-25T13:46:49;12.55;;;2.38;;
53052;SDS011;38934;52.690;6.184;2023-11-25T13:49:15;10.85;;;2.47;;
53052;SDS011;38934;52.690;6.184;2023-11-25T13:51:41;9.93;;;2.05;;
53052;SDS011;38934;52.690;6.184;2023-11-25T13:54:07;10.45;;;2.22;;
53052;SDS011;38934;52.690;6.184;2023-11-25T13:56:34;9.55;;;1.90;;
53052;SDS011;38934;52.690;6.184;2023-11-25T13:59:00;11.30;;;2.00;;
53052;SDS011;38934;52.690;6.184;2023-11-25T14:01:26;7.68;;;2.17;;
53052;SDS011;38934;52.690;6.184;2023-11-25T14:03:53;6.55;;;1.75;;
53052;SDS011;38934;52.690;6.184;2023-11-25T14:06:21;9.88;;;2.00;;
53052;SDS011;38934;52.690;6.184;2023-11-25T14:08:49;8.35;;;1.80;;
53052;SDS011;38934;52.690;6.184;2023-11-25T14:11:15;9.27;;;2.00;;
53052;SDS011;38934;52.690;6.184;2023-11-25T14:13:42;13.35;;;2.80;;
53052;SDS011;38934;52.690;6.184;2023-11-25T14:16:08;8.13;;;1.75;;
53052;SDS011;38934;52.690;6.184;2023-11-25T14:18:34;5.32;;;1.88;;
53052;SDS011;38934;52.690;6.184;2023-11-25T14:21:00;7.13;;;1.83;;
53052;SDS011;38934;52.690;6.184;2023-11-25T14:23:27;9.80;;;1.83;;
53052;SDS011;38934;52.690;6.184;2023-11-25T14:25:54;12.00;;;2.40;;
53052;SDS011;38934;52.690;6.184;2023-11-25T14:28:20;4.47;;;2.25;;
53052;SDS011;38934;52.690;6.184;2023-11-25T14:30:47;10.27;;;1.92;;
53052;SDS011;38934;52.690;6.184;2023-11-25T14:33:13;4.93;;;1.70;;
53052;SDS011;38934;52.690;6.184;2023-11-25T14:35:39;6.85;;;1.80;;
53052;SDS011;38934;52.690;6.184;2023-11-25T14:38:05;5.55;;;1.90;;
53052;SDS011;38934;52.690;6.184;2023-11-25T14:40:31;8.93;;;2.17;;
53052;SDS011;38934;52.690;6.184;2023-11-25T14:43:00;4.10;;;1.83;;
53052;SDS011;38934;52.690;6.184;2023-11-25T14:45:26;7.05;;;2.10;;
53052;SDS011;38934;52.690;6.184;2023-11-25T14:47:51;12.60;;;2.20;;
53052;SDS011;38934;52.690;6.184;2023-11-25T14:50:17;6.22;;;1.98;;
53052;SDS011;38934;52.690;6.184;2023-11-25T14:52:44;8.73;;;1.80;;
53052;SDS011;38934;52.690;6.184;2023-11-25T14:55:09;12.27;;;1.80;;
53052;SDS011;38934;52.690;6.184;2023-11-25T14:57:37;5.80;;;1.98;;
53052;SDS011;38934;52.690;6.184;2023-11-25T15:00:04;5.28;;;1.90;;
53052;SDS011;38934;52.690;6.184;2023-11-25T15:02:32;6.82;;;1.80;;